CSCL Spring — VRMT6 — position and weather

sailwx.info

Track history (hours):
 
Tides and Currents Weather Stations Pressure Air Temp Water Temp Dewpoint Dewpoint Depression Visibility Wind Speed Wind Dir Waves Ship Positions

CSCL Spring

Last reported at 2017-Dec-01 16:55 UTC. Time now 2017-Dec-11 02:04 UTC.
Position N 37°19' E 122°46'.
Warning: this ship's position is 9 days out of date.

Length 335 m; draft 11.9 m.

Type: Ship (hazmat cat B). MMSI: 477257100.

Date/timePositionNaut miles runAvg speedWind from/ knotsBaromVisibWave heightAir tempDewpointWater temp
2017-Dec-01 16:55N 37°19' E 122°46'613.7
2017-Dec-01 16:29N 37°25' E 122°46'1914.1
2017-Dec-01 15:07N 37°39' E 122°29'314.3
2017-Dec-01 14:56N 37°40' E 122°26'614.2
2017-Dec-01 14:30N 37°44' E 122°20'714.6
2017-Dec-01 14:00N 37°48' E 122°12'814.8
2017-Dec-01 13:27N 37°54' E 122°05'714.6
2017-Dec-01 13:00N 37°58' E 121°58'714.0
2017-Dec-01 12:30N 38°02' E 121°52'713.9
2017-Dec-01 12:00N 38°07' E 121°45'813.9
2017-Dec-01 11:28N 38°11' E 121°37'713.5
2017-Dec-01 10:59N 38°14' E 121°30'  
2017-Nov-29 04:04N 38°29' E 121°09'518.5
2017-Nov-29 03:47N 38°27' E 121°15'718.8
2017-Nov-29 03:23N 38°23' E 121°23'718.8
2017-Nov-29 03:00N 38°20' E 121°31'  
2017-Nov-26 12:50N 41°12' E 140°05'617.2
2017-Nov-26 12:30N 41°15' E 140°11'816.2
2017-Nov-26 12:00N 41°20' E 140°20'815.8
2017-Nov-26 11:30N 41°25' E 140°28'815.6
2017-Nov-26 11:00N 41°29' E 140°37'816.0
2017-Nov-26 10:30N 41°33' E 140°46'815.9
2017-Nov-26 10:00N 41°37' E 140°55'714.5
2017-Nov-26 09:30N 41°37' E 141°05'714.7
2017-Nov-26 09:00N 41°36' E 141°14'714.5
2017-Nov-26 08:30N 41°36' E 141°24'714.8
2017-Nov-26 08:00N 41°36' E 141°34'916.6
2017-Nov-26 07:27N 41°36' E 141°46'  
Track history (hours):
 
Tides and Currents Weather Stations Pressure Air Temp Water Temp Dewpoint Dewpoint Depression Visibility Wind Speed Wind Dir Waves Ship Positions

CSCL Spring

Last reported at 2017-Dec-01 16:55 UTC. Time now 2017-Dec-11 02:05 UTC.
Position N 37°19' E 122°46'.
Warning: this ship's position is 9 days out of date.

Length 335 m; draft 11.9 m.

Type: Ship (hazmat cat B). MMSI: 477257100.

Date/timePositionNaut miles runAvg speedWind from/ knotsBaromVisibWave heightAir tempDewpointWater temp
2017-Dec-01 16:55N 37°19' E 122°46'613.7
2017-Dec-01 16:29N 37°25' E 122°46'1914.1
2017-Dec-01 15:07N 37°39' E 122°29'314.3
2017-Dec-01 14:56N 37°40' E 122°26'614.2
2017-Dec-01 14:30N 37°44' E 122°20'714.6
2017-Dec-01 14:00N 37°48' E 122°12'814.8
2017-Dec-01 13:27N 37°54' E 122°05'714.6
2017-Dec-01 13:00N 37°58' E 121°58'714.0
2017-Dec-01 12:30N 38°02' E 121°52'713.9
2017-Dec-01 12:00N 38°07' E 121°45'813.9
2017-Dec-01 11:28N 38°11' E 121°37'713.5
2017-Dec-01 10:59N 38°14' E 121°30'  
2017-Nov-29 04:04N 38°29' E 121°09'518.5
2017-Nov-29 03:47N 38°27' E 121°15'718.8
2017-Nov-29 03:23N 38°23' E 121°23'718.8
2017-Nov-29 03:00N 38°20' E 121°31'  
2017-Nov-26 12:50N 41°12' E 140°05'617.2
2017-Nov-26 12:30N 41°15' E 140°11'816.2
2017-Nov-26 12:00N 41°20' E 140°20'815.8
2017-Nov-26 11:30N 41°25' E 140°28'815.6
2017-Nov-26 11:00N 41°29' E 140°37'816.0
2017-Nov-26 10:30N 41°33' E 140°46'815.9
2017-Nov-26 10:00N 41°37' E 140°55'714.5
2017-Nov-26 09:30N 41°37' E 141°05'714.7
2017-Nov-26 09:00N 41°36' E 141°14'714.5
2017-Nov-26 08:30N 41°36' E 141°24'714.8
2017-Nov-26 08:00N 41°36' E 141°34'916.6
2017-Nov-26 07:27N 41°36' E 141°46'  

Dump ship's entire track history